Jump to content

  •  

SKYWEST AIRLINES FLIGHT OO5240 FLOWN ON 11-18-2017 BY CAPTAIN DEREK ROGY

Pilot StatsCaptain Derek Rogy (LDP86) • 1,506.2 total hours • 807 total flights [View Logbook]
FLIGHT DETAILS
StatusReceived and approved on 2017-11-18 at 14:11:16
Origin AirportDenver Intl (KDEN) • Denver, Colorado, United States (5,430 feet MSL)
Filed Flight PlanFLIGHT PLANNER OFFLINE
Destination AirportVancouver Intl (CYVR) • Vancouver, British Columbia, Canada (14 feet MSL)
Alternate AirportBellingham Intl (KBLI) • Bellingham, Washington, United States (170 feet MSL)
AirlineSkywest Airlines
AircraftEmbraer E-175 (E75 / E175)
FS Aircraft UsedFT Embraer 175 United Express '2014 SKW'
Cruising AltitudeFL320
Distance Flown966 nautical miles
Passengers Onboard33 passengers (39.29% full)
DEPARTURE DETAILS
Time Out11:48:55
Taxi Data70,544 lbs total with 15,699 lbs of fuel onboard
Takeoff Data12:00:34 (12 minutes after leaving gate/ramp) • 70,199 lbs total • 5° pitch at 159 knots
Departure METARKDEN 181453Z 05007KT 10SM FEW070 01/M09 A3022 RMK AO2 SLP234 T00061094 51020
ARRIVAL DETAILS
Landing Data14:03:54 • 59,813 lbs total • 7° pitch doing 112 knots at a rate of -38.45 feet/minute with 4,965 lbs of fuel onboard
Time In14:05:22 (1 minute after landing)
Ramp Weight59,810 lbs total
Total Fuel Used10,734 lbs
Total Block Time03:17:56 (3.3 hours) while 13 minutes were spent on the ground
Arrival METARCYVR 181900Z 11010KT 15SM FEW015 SCT042 BKN130 BKN150 09/06 A3021 RMK CF2SC2AC2AC1 SLP232
MISCELLANEOUS DETAILS
LiveDISPATCH Version4.8.3.1
FS Version
FSUIPC Version4.95
OS VersionWindows 7 32-bit
Screen Resolution1920 x 1200
Pilot's CommentsNo Comments Reported
FLIGHT MAP